Notice: Undefined index: name in /home/yearbywe/public_html/pwsTEST/metar_load_funct.php on line 53

Notice: Undefined index: humidity_percent in /home/yearbywe/public_html/pwsTEST/metar_load_funct.php on line 95
Metar Aviation Weather Data     EGNV
 X  CloseMetar Aviation Weather Data     EGNV

Temperature

14°C Temp

12°C Dewpoint

% Humidity



Wind

10 KM/H

 6 MPH

 5 KTS



360°
Due North
Current Conditions

Clear Clear
Pressure 1021.92 (hPa) - 30.18 (in)
Visibility 6.2 (mi) - 10 (km)
Airport
Airport-code EGNV

Location 0 (mi)

Metar:
EGNV 080520Z 36005KT CAVOK 14/12 Q1022


Notice: Undefined offset: 1 in /home/yearbywe/public_html/pwsTEST/metar_popup.php on line 198

Notice: Undefined offset: 1 in /home/yearbywe/public_html/pwsTEST/metar_popup.php on line 200
Time: 10-02-2014 00:00